sensor_id;sensor_type;location;lat;lon;timestamp;pressure;altitude;pressure_sealevel;temperature;humidity
60244;BME280;46106;51.468;5.814;2023-04-01T00:00:26;98835.94;;;9.96;100.00
60244;BME280;46106;51.468;5.814;2023-04-01T00:02:52;98850.78;;;9.93;100.00
60244;BME280;46106;51.468;5.814;2023-04-01T00:05:18;98852.19;;;9.98;100.00
60244;BME280;46106;51.468;5.814;2023-04-01T00:07:43;98843.81;;;9.91;100.00
60244;BME280;46106;51.468;5.814;2023-04-01T00:10:10;98834.91;;;9.89;100.00
60244;BME280;46106;51.468;5.814;2023-04-01T00:12:40;98832.69;;;9.84;100.00
60244;BME280;46106;51.468;5.814;2023-04-01T00:15:07;98844.97;;;9.88;100.00
60244;BME280;46106;51.468;5.814;2023-04-01T00:17:33;98846.34;;;9.84;100.00
60244;BME280;46106;51.468;5.814;2023-04-01T00:19:59;98846.88;;;9.88;100.00
60244;BME280;46106;51.468;5.814;2023-04-01T00:22:25;98842.06;;;9.82;100.00
60244;BME280;46106;51.468;5.814;2023-04-01T00:24:51;98844.78;;;9.82;100.00
60244;BME280;46106;51.468;5.814;2023-04-01T00:27:16;98842.03;;;9.73;100.00
60244;BME280;46106;51.468;5.814;2023-04-01T00:29:43;98847.00;;;9.78;100.00
60244;BME280;46106;51.468;5.814;2023-04-01T00:32:09;98836.41;;;9.75;100.00
60244;BME280;46106;51.468;5.814;2023-04-01T00:34:34;98844.63;;;9.83;100.00
60244;BME280;46106;51.468;5.814;2023-04-01T00:37:03;98839.81;;;9.77;100.00
60244;BME280;46106;51.468;5.814;2023-04-01T00:39:30;98841.72;;;9.77;100.00
60244;BME280;46106;51.468;5.814;2023-04-01T00:41:56;98856.59;;;9.82;100.00
60244;BME280;46106;51.468;5.814;2023-04-01T00:44:25;98844.97;;;9.80;100.00
60244;BME280;46106;51.468;5.814;2023-04-01T00:46:51;98848.22;;;9.84;100.00
60244;BME280;46106;51.468;5.814;2023-04-01T00:49:19;98839.50;;;9.88;100.00
60244;BME280;46106;51.468;5.814;2023-04-01T00:51:48;98853.66;;;9.75;100.00
60244;BME280;46106;51.468;5.814;2023-04-01T00:54:16;98851.13;;;9.82;100.00
60244;BME280;46106;51.468;5.814;2023-04-01T00:56:50;98850.56;;;9.70;100.00
60244;BME280;46106;51.468;5.814;2023-04-01T00:59:26;98841.72;;;9.85;100.00
60244;BME280;46106;51.468;5.814;2023-04-01T01:01:52;98856.06;;;9.87;100.00
60244;BME280;46106;51.468;5.814;2023-04-01T01:04:27;98859.34;;;9.82;100.00
60244;BME280;46106;51.468;5.814;2023-04-01T01:10:17;98866.69;;;9.90;100.00
60244;BME280;46106;51.468;5.814;2023-04-01T01:15:30;98879.84;;;9.94;100.00
60244;BME280;46106;51.468;5.814;2023-04-01T01:26:52;98881.69;;;9.78;100.00
60244;BME280;46106;51.468;5.814;2023-04-01T01:29:34;98871.78;;;9.85;100.00
60244;BME280;46106;51.468;5.814;2023-04-01T01:37:38;98880.47;;;9.72;100.00
60244;BME280;46106;51.468;5.814;2023-04-01T01:40:10;98887.13;;;9.69;100.00
60244;BME280;46106;51.468;5.814;2023-04-01T01:42:47;98884.09;;;9.81;100.00
60244;BME280;46106;51.468;5.814;2023-04-01T01:45:15;98877.06;;;9.78;100.00
60244;BME280;46106;51.468;5.814;2023-04-01T01:47:43;98893.31;;;9.80;100.00
60244;BME280;46106;51.468;5.814;2023-04-01T01:50:14;98891.22;;;9.73;100.00
60244;BME280;46106;51.468;5.814;2023-04-01T01:52:40;98890.22;;;9.74;100.00
60244;BME280;46106;51.468;5.814;2023-04-01T01:55:28;98892.25;;;9.72;100.00
60244;BME280;46106;51.468;5.814;2023-04-01T01:57:56;98892.94;;;9.74;100.00
60244;BME280;46106;51.468;5.814;2023-04-01T02:00:23;98893.78;;;9.75;100.00
60244;BME280;46106;51.468;5.814;2023-04-01T02:02:50;98887.81;;;9.71;100.00
60244;BME280;46106;51.468;5.814;2023-04-01T02:05:22;98892.63;;;9.78;100.00
60244;BME280;46106;51.468;5.814;2023-04-01T02:07:59;98904.91;;;9.82;100.00
60244;BME280;46106;51.468;5.814;2023-04-01T02:10:31;98900.47;;;9.72;100.00
60244;BME280;46106;51.468;5.814;2023-04-01T02:13:05;98903.34;;;9.71;100.00
60244;BME280;46106;51.468;5.814;2023-04-01T02:15:32;98904.22;;;9.71;100.00
60244;BME280;46106;51.468;5.814;2023-04-01T02:18:02;98904.03;;;9.73;100.00
60244;BME280;46106;51.468;5.814;2023-04-01T02:20:29;98910.56;;;9.80;100.00
60244;BME280;46106;51.468;5.814;2023-04-01T02:22:56;98912.59;;;9.78;100.00
60244;BME280;46106;51.468;5.814;2023-04-01T02:25:31;98910.34;;;9.73;100.00
60244;BME280;46106;51.468;5.814;2023-04-01T02:27:59;98930.31;;;9.66;100.00
60244;BME280;46106;51.468;5.814;2023-04-01T02:30:29;98915.63;;;9.67;100.00
60244;BME280;46106;51.468;5.814;2023-04-01T02:32:58;98917.53;;;9.74;100.00
60244;BME280;46106;51.468;5.814;2023-04-01T02:35:24;98915.50;;;9.77;100.00
60244;BME280;46106;51.468;5.814;2023-04-01T02:37:52;98915.84;;;9.82;100.00
60244;BME280;46106;51.468;5.814;2023-04-01T02:40:18;98917.38;;;9.76;100.00
60244;BME280;46106;51.468;5.814;2023-04-01T02:42:44;98917.22;;;9.78;100.00
60244;BME280;46106;51.468;5.814;2023-04-01T02:45:11;98925.59;;;9.76;100.00
60244;BME280;46106;51.468;5.814;2023-04-01T02:47:37;98919.94;;;9.78;100.00
60244;BME280;46106;51.468;5.814;2023-04-01T02:50:03;98921.00;;;9.85;100.00
60244;BME280;46106;51.468;5.814;2023-04-01T02:52:30;98928.53;;;9.91;100.00
60244;BME280;46106;51.468;5.814;2023-04-01T02:54:56;98937.06;;;9.88;100.00
60244;BME280;46106;51.468;5.814;2023-04-01T02:57:22;98929.69;;;9.80;100.00
60244;BME280;46106;51.468;5.814;2023-04-01T02:59:48;98933.31;;;9.89;100.00
60244;BME280;46106;51.468;5.814;2023-04-01T03:02:14;98933.69;;;9.94;100.00
60244;BME280;46106;51.468;5.814;2023-04-01T03:04:39;98927.97;;;9.71;100.00
60244;BME280;46106;51.468;5.814;2023-04-01T03:07:05;98938.41;;;9.84;100.00
60244;BME280;46106;51.468;5.814;2023-04-01T03:09:30;98939.47;;;9.91;100.00
60244;BME280;46106;51.468;5.814;2023-04-01T03:11:56;98937.75;;;9.90;100.00
60244;BME280;46106;51.468;5.814;2023-04-01T03:14:21;98945.50;;;10.03;100.00
60244;BME280;46106;51.468;5.814;2023-04-01T03:16:47;98939.41;;;9.74;100.00
60244;BME280;46106;51.468;5.814;2023-04-01T03:19:12;98940.78;;;9.79;100.00
60244;BME280;46106;51.468;5.814;2023-04-01T03:21:38;98944.56;;;9.78;100.00
60244;BME280;46106;51.468;5.814;2023-04-01T03:24:04;98946.69;;;10.00;100.00
60244;BME280;46106;51.468;5.814;2023-04-01T03:26:29;98954.00;;;9.91;100.00
60244;BME280;46106;51.468;5.814;2023-04-01T03:28:55;98950.06;;;9.86;100.00
60244;BME280;46106;51.468;5.814;2023-04-01T03:31:21;98948.00;;;9.88;100.00
60244;BME280;46106;51.468;5.814;2023-04-01T03:33:47;98954.31;;;9.88;100.00
60244;BME280;46106;51.468;5.814;2023-04-01T03:36:13;98951.06;;;9.85;100.00
60244;BME280;46106;51.468;5.814;2023-04-01T03:38:40;98961.03;;;9.94;100.00
60244;BME280;46106;51.468;5.814;2023-04-01T03:41:07;98951.91;;;9.85;100.00
60244;BME280;46106;51.468;5.814;2023-04-01T03:43:33;98950.34;;;9.74;100.00
60244;BME280;46106;51.468;5.814;2023-04-01T03:45:58;98956.69;;;9.83;100.00
60244;BME280;46106;51.468;5.814;2023-04-01T03:48:24;98955.00;;;9.82;100.00
60244;BME280;46106;51.468;5.814;2023-04-01T03:50:51;98960.81;;;9.87;100.00
60244;BME280;46106;51.468;5.814;2023-04-01T03:53:16;98966.28;;;9.87;100.00
60244;BME280;46106;51.468;5.814;2023-04-01T03:55:42;98964.53;;;9.78;100.00
60244;BME280;46106;51.468;5.814;2023-04-01T03:58:07;98964.81;;;9.67;100.00
60244;BME280;46106;51.468;5.814;2023-04-01T04:00:33;98964.75;;;9.59;100.00
60244;BME280;46106;51.468;5.814;2023-04-01T04:02:59;98972.06;;;9.50;100.00
60244;BME280;46106;51.468;5.814;2023-04-01T04:05:25;98967.78;;;9.47;100.00
60244;BME280;46106;51.468;5.814;2023-04-01T04:07:51;98968.34;;;9.59;100.00
60244;BME280;46106;51.468;5.814;2023-04-01T04:10:17;98964.94;;;9.57;100.00
60244;BME280;46106;51.468;5.814;2023-04-01T04:12:43;98971.59;;;9.54;100.00
60244;BME280;46106;51.468;5.814;2023-04-01T04:15:10;98973.41;;;9.46;100.00
60244;BME280;46106;51.468;5.814;2023-04-01T04:17:35;98974.59;;;9.43;100.00
60244;BME280;46106;51.468;5.814;2023-04-01T04:20:01;98978.53;;;9.49;100.00
60244;BME280;46106;51.468;5.814;2023-04-01T04:22:27;98979.94;;;9.53;100.00
60244;BME280;46106;51.468;5.814;2023-04-01T04:24:52;98986.16;;;9.63;100.00
60244;BME280;46106;51.468;5.814;2023-04-01T04:27:18;98977.25;;;9.61;100.00
60244;BME280;46106;51.468;5.814;2023-04-01T04:29:43;98981.69;;;9.62;100.00
60244;BME280;46106;51.468;5.814;2023-04-01T04:32:09;98987.88;;;9.64;100.00
60244;BME280;46106;51.468;5.814;2023-04-01T04:34:34;98989.03;;;9.62;100.00
60244;BME280;46106;51.468;5.814;2023-04-01T04:37:03;98984.41;;;9.62;100.00
60244;BME280;46106;51.468;5.814;2023-04-01T04:39:29;98992.25;;;9.57;100.00
60244;BME280;46106;51.468;5.814;2023-04-01T04:41:54;98984.09;;;9.65;100.00
60244;BME280;46106;51.468;5.814;2023-04-01T04:44:20;98999.47;;;9.66;100.00
60244;BME280;46106;51.468;5.814;2023-04-01T04:46:45;98995.34;;;9.62;100.00
60244;BME280;46106;51.468;5.814;2023-04-01T04:49:14;99006.13;;;9.64;100.00
60244;BME280;46106;51.468;5.814;2023-04-01T04:51:39;98996.03;;;9.56;100.00
60244;BME280;46106;51.468;5.814;2023-04-01T04:54:06;99004.75;;;9.60;100.00
60244;BME280;46106;51.468;5.814;2023-04-01T04:56:32;98985.66;;;9.42;100.00
60244;BME280;46106;51.468;5.814;2023-04-01T04:58:58;99015.31;;;9.54;100.00
60244;BME280;46106;51.468;5.814;2023-04-01T05:01:23;99009.72;;;9.38;100.00
60244;BME280;46106;51.468;5.814;2023-04-01T05:03:49;99010.78;;;9.45;100.00
60244;BME280;46106;51.468;5.814;2023-04-01T05:06:16;99020.03;;;9.52;100.00
60244;BME280;46106;51.468;5.814;2023-04-01T05:08:42;99013.47;;;9.37;100.00
60244;BME280;46106;51.468;5.814;2023-04-01T05:11:14;99013.84;;;9.42;100.00
60244;BME280;46106;51.468;5.814;2023-04-01T05:13:40;99011.25;;;9.41;100.00
60244;BME280;46106;51.468;5.814;2023-04-01T05:16:11;99019.47;;;9.41;100.00
60244;BME280;46106;51.468;5.814;2023-04-01T05:18:37;99026.34;;;9.45;100.00
60244;BME280;46106;51.468;5.814;2023-04-01T05:21:03;99025.06;;;9.39;100.00
60244;BME280;46106;51.468;5.814;2023-04-01T05:23:30;99027.19;;;9.45;100.00
60244;BME280;46106;51.468;5.814;2023-04-01T05:25:56;99030.91;;;9.44;100.00
60244;BME280;46106;51.468;5.814;2023-04-01T05:28:22;99034.75;;;9.51;100.00
60244;BME280;46106;51.468;5.814;2023-04-01T05:30:48;99032.69;;;9.53;100.00
60244;BME280;46106;51.468;5.814;2023-04-01T05:33:14;99036.75;;;9.49;100.00
60244;BME280;46106;51.468;5.814;2023-04-01T05:35:40;99047.38;;;9.52;100.00
60244;BME280;46106;51.468;5.814;2023-04-01T05:38:05;99044.09;;;9.49;100.00
60244;BME280;46106;51.468;5.814;2023-04-01T05:40:31;99054.03;;;9.50;100.00
60244;BME280;46106;51.468;5.814;2023-04-01T05:42:58;99058.94;;;9.46;100.00
60244;BME280;46106;51.468;5.814;2023-04-01T05:45:24;99047.38;;;9.52;100.00
60244;BME280;46106;51.468;5.814;2023-04-01T05:47:50;99058.78;;;9.48;100.00
60244;BME280;46106;51.468;5.814;2023-04-01T05:50:16;99068.53;;;9.50;100.00
60244;BME280;46106;51.468;5.814;2023-04-01T05:52:41;99054.09;;;9.58;100.00
60244;BME280;46106;51.468;5.814;2023-04-01T05:55:10;99075.25;;;9.56;100.00
60244;BME280;46106;51.468;5.814;2023-04-01T05:57:35;99078.19;;;9.63;100.00
60244;BME280;46106;51.468;5.814;2023-04-01T06:00:01;99071.72;;;9.46;100.00
60244;BME280;46106;51.468;5.814;2023-04-01T06:02:26;99077.56;;;9.51;100.00
60244;BME280;46106;51.468;5.814;2023-04-01T06:05:19;99068.63;;;9.41;100.00
60244;BME280;46106;51.468;5.814;2023-04-01T06:07:45;99082.09;;;9.60;100.00
60244;BME280;46106;51.468;5.814;2023-04-01T06:10:14;99091.34;;;9.67;100.00
60244;BME280;46106;51.468;5.814;2023-04-01T06:12:48;99092.34;;;9.58;100.00
60244;BME280;46106;51.468;5.814;2023-04-01T06:15:29;99088.75;;;9.57;100.00
60244;BME280;46106;51.468;5.814;2023-04-01T06:18:41;99102.94;;;9.61;100.00
60244;BME280;46106;51.468;5.814;2023-04-01T06:27:02;99106.78;;;9.50;100.00
60244;BME280;46106;51.468;5.814;2023-04-01T06:46:28;99115.81;;;9.51;100.00
60244;BME280;46106;51.468;5.814;2023-04-01T06:51:54;99134.66;;;9.80;100.00
60244;BME280;46106;51.468;5.814;2023-04-01T06:54:32;99148.81;;;9.75;100.00
60244;BME280;46106;51.468;5.814;2023-04-01T06:59:43;99150.59;;;9.85;100.00
60244;BME280;46106;51.468;5.814;2023-04-01T07:04:44;99153.72;;;9.90;100.00
60244;BME280;46106;51.468;5.814;2023-04-01T07:07:33;99165.13;;;9.85;100.00
60244;BME280;46106;51.468;5.814;2023-04-01T07:10:04;99165.03;;;9.95;100.00
60244;BME280;46106;51.468;5.814;2023-04-01T07:14:56;99154.75;;;9.89;100.00
60244;BME280;46106;51.468;5.814;2023-04-01T07:17:28;99161.44;;;9.94;100.00
60244;BME280;46106;51.468;5.814;2023-04-01T07:20:23;99166.13;;;10.02;100.00
60244;BME280;46106;51.468;5.814;2023-04-01T07:22:55;99175.31;;;10.01;100.00
60244;BME280;46106;51.468;5.814;2023-04-01T07:25:35;99174.06;;;10.14;100.00
60244;BME280;46106;51.468;5.814;2023-04-01T07:28:11;99181.13;;;10.24;100.00
60244;BME280;46106;51.468;5.814;2023-04-01T07:36:39;99195.63;;;10.17;100.00
60244;BME280;46106;51.468;5.814;2023-04-01T07:39:30;99199.91;;;10.19;100.00
60244;BME280;46106;51.468;5.814;2023-04-01T07:42:13;99196.78;;;10.32;100.00
60244;BME280;46106;51.468;5.814;2023-04-01T07:47:25;99193.44;;;10.46;100.00
60244;BME280;46106;51.468;5.814;2023-04-01T07:50:29;99218.75;;;10.48;100.00
60244;BME280;46106;51.468;5.814;2023-04-01T08:01:45;99227.72;;;10.33;100.00
60244;BME280;46106;51.468;5.814;2023-04-01T08:15:06;99244.03;;;10.24;100.00
60244;BME280;46106;51.468;5.814;2023-04-01T08:20:18;99257.72;;;10.24;100.00
60244;BME280;46106;51.468;5.814;2023-04-01T08:22:57;99255.69;;;10.26;100.00
60244;BME280;46106;51.468;5.814;2023-04-01T08:25:26;99267.19;;;10.30;100.00
60244;BME280;46106;51.468;5.814;2023-04-01T08:28:01;99262.69;;;10.47;100.00
60244;BME280;46106;51.468;5.814;2023-04-01T08:30:47;99263.03;;;10.44;100.00
60244;BME280;46106;51.468;5.814;2023-04-01T08:33:21;99277.22;;;10.47;100.00
60244;BME280;46106;51.468;5.814;2023-04-01T08:36:11;99278.00;;;10.58;100.00
60244;BME280;46106;51.468;5.814;2023-04-01T08:38:42;99271.66;;;10.57;100.00
60244;BME280;46106;51.468;5.814;2023-04-01T08:44:30;99281.69;;;10.75;100.00
60244;BME280;46106;51.468;5.814;2023-04-01T08:52:34;99296.13;;;10.85;100.00
60244;BME280;46106;51.468;5.814;2023-04-01T08:55:24;99296.72;;;10.71;100.00
60244;BME280;46106;51.468;5.814;2023-04-01T08:57:55;99304.41;;;10.67;100.00
60244;BME280;46106;51.468;5.814;2023-04-01T09:00:42;99309.56;;;10.70;100.00
60244;BME280;46106;51.468;5.814;2023-04-01T09:14:15;99321.50;;;10.61;100.00
60244;BME280;46106;51.468;5.814;2023-04-01T09:27:32;99342.72;;;11.19;100.00
60244;BME280;46106;51.468;5.814;2023-04-01T09:30:24;99336.16;;;11.47;100.00
60244;BME280;46106;51.468;5.814;2023-04-01T09:33:36;99340.03;;;11.36;100.00
60244;BME280;46106;51.468;5.814;2023-04-01T09:36:18;99348.31;;;11.44;100.00
60244;BME280;46106;51.468;5.814;2023-04-01T09:39:15;99351.41;;;11.49;100.00
60244;BME280;46106;51.468;5.814;2023-04-01T09:58:08;99373.72;;;11.54;100.00
60244;BME280;46106;51.468;5.814;2023-04-01T10:23:49;99402.78;;;11.13;100.00
60244;BME280;46106;51.468;5.814;2023-04-01T10:26:50;99398.75;;;11.25;100.00
60244;BME280;46106;51.468;5.814;2023-04-01T10:32:34;99415.41;;;11.06;100.00
60244;BME280;46106;51.468;5.814;2023-04-01T10:38:20;99420.97;;;10.96;100.00
60244;BME280;46106;51.468;5.814;2023-04-01T10:40:35;99420.41;;;11.10;100.00
60244;BME280;46106;51.468;5.814;2023-04-01T10:54:25;99428.41;;;11.30;100.00
60244;BME280;46106;51.468;5.814;2023-04-01T10:59:59;99437.91;;;11.17;100.00
60244;BME280;46106;51.468;5.814;2023-04-01T11:17:15;99462.03;;;11.40;100.00
60244;BME280;46106;51.468;5.814;2023-04-01T11:28:20;99466.31;;;11.16;100.00
60244;BME280;46106;51.468;5.814;2023-04-01T11:33:50;99459.19;;;11.24;100.00
60244;BME280;46106;51.468;5.814;2023-04-01T11:36:25;99469.09;;;11.25;100.00
60244;BME280;46106;51.468;5.814;2023-04-01T11:39:29;99481.25;;;11.22;100.00
60244;BME280;46106;51.468;5.814;2023-04-01T11:44:55;99477.63;;;10.95;100.00
60244;BME280;46106;51.468;5.814;2023-04-01T11:52:53;99485.59;;;11.33;100.00
60244;BME280;46106;51.468;5.814;2023-04-01T11:58:22;99489.00;;;11.53;100.00
60244;BME280;46106;51.468;5.814;2023-04-01T12:06:30;99510.84;;;11.63;100.00
60244;BME280;46106;51.468;5.814;2023-04-01T12:12:14;99518.59;;;11.75;100.00
60244;BME280;46106;51.468;5.814;2023-04-01T12:37:26;99543.63;;;11.72;100.00
60244;BME280;46106;51.468;5.814;2023-04-01T12:40:06;99556.13;;;11.93;100.00
60244;BME280;46106;51.468;5.814;2023-04-01T12:42:54;99548.72;;;11.93;100.00
60244;BME280;46106;51.468;5.814;2023-04-01T12:50:47;99556.78;;;11.69;100.00
60244;BME280;46106;51.468;5.814;2023-04-01T12:55:54;99555.13;;;11.50;100.00
60244;BME280;46106;51.468;5.814;2023-04-01T13:01:48;99574.00;;;11.79;100.00
60244;BME280;46106;51.468;5.814;2023-04-01T13:07:39;99568.34;;;11.54;100.00
60244;BME280;46106;51.468;5.814;2023-04-01T13:10:32;99580.78;;;11.49;100.00
60244;BME280;46106;51.468;5.814;2023-04-01T13:18:27;99582.69;;;11.48;100.00
60244;BME280;46106;51.468;5.814;2023-04-01T13:24:16;99580.03;;;11.38;100.00
60244;BME280;46106;51.468;5.814;2023-04-01T13:32:19;99596.06;;;11.51;100.00
60244;BME280;46106;51.468;5.814;2023-04-01T13:42:33;99602.31;;;11.62;100.00
60244;BME280;46106;51.468;5.814;2023-04-01T13:50:34;99616.44;;;11.49;100.00
60244;BME280;46106;51.468;5.814;2023-04-01T13:56:15;99623.31;;;11.71;100.00
60244;BME280;46106;51.468;5.814;2023-04-01T13:59:01;99623.34;;;11.53;100.00
60244;BME280;46106;51.468;5.814;2023-04-01T14:01:41;99624.47;;;11.68;100.00
60244;BME280;46106;51.468;5.814;2023-04-01T14:07:10;99631.34;;;11.90;100.00
60244;BME280;46106;51.468;5.814;2023-04-01T14:10:04;99631.91;;;11.76;100.00
60244;BME280;46106;51.468;5.814;2023-04-01T14:17:53;99640.78;;;11.16;100.00
60244;BME280;46106;51.468;5.814;2023-04-01T14:26:01;99660.72;;;11.08;100.00
60244;BME280;46106;51.468;5.814;2023-04-01T14:29:10;99665.66;;;11.04;100.00
60244;BME280;46106;51.468;5.814;2023-04-01T14:48:48;99674.97;;;10.94;100.00
60244;BME280;46106;51.468;5.814;2023-04-01T14:51:32;99686.91;;;11.20;100.00
60244;BME280;46106;51.468;5.814;2023-04-01T14:59:01;99689.56;;;11.12;100.00
60244;BME280;46106;51.468;5.814;2023-04-01T15:04:24;99699.66;;;11.12;100.00
60244;BME280;46106;51.468;5.814;2023-04-01T15:09:32;99706.59;;;11.06;100.00
60244;BME280;46106;51.468;5.814;2023-04-01T15:12:17;99704.16;;;11.03;100.00
60244;BME280;46106;51.468;5.814;2023-04-01T15:15:14;99711.06;;;11.07;100.00
60244;BME280;46106;51.468;5.814;2023-04-01T15:26:07;99720.34;;;11.24;100.00
60244;BME280;46106;51.468;5.814;2023-04-01T15:28:42;99721.38;;;11.13;100.00
60244;BME280;46106;51.468;5.814;2023-04-01T15:31:18;99725.66;;;11.26;100.00
60244;BME280;46106;51.468;5.814;2023-04-01T15:34:02;99735.53;;;11.18;100.00
60244;BME280;46106;51.468;5.814;2023-04-01T15:36:50;99733.63;;;11.19;100.00
60244;BME280;46106;51.468;5.814;2023-04-01T15:43:00;99736.16;;;11.30;100.00
60244;BME280;46106;51.468;5.814;2023-04-01T15:45:54;99751.81;;;11.20;100.00
60244;BME280;46106;51.468;5.814;2023-04-01T15:54:21;99746.38;;;11.10;100.00
60244;BME280;46106;51.468;5.814;2023-04-01T15:57:23;99755.94;;;11.24;100.00
60244;BME280;46106;51.468;5.814;2023-04-01T16:00:08;99754.53;;;11.20;100.00
60244;BME280;46106;51.468;5.814;2023-04-01T16:02:49;99761.19;;;11.17;100.00
60244;BME280;46106;51.468;5.814;2023-04-01T16:08:43;99767.16;;;11.31;100.00
60244;BME280;46106;51.468;5.814;2023-04-01T16:14:22;99773.88;;;11.46;100.00
60244;BME280;46106;51.468;5.814;2023-04-01T16:22:29;99781.16;;;11.28;100.00
60244;BME280;46106;51.468;5.814;2023-04-01T16:28:02;99781.56;;;11.33;100.00
60244;BME280;46106;51.468;5.814;2023-04-01T16:33:49;99797.84;;;11.34;100.00
60244;BME280;46106;51.468;5.814;2023-04-01T16:39:09;99801.38;;;11.27;100.00
60244;BME280;46106;51.468;5.814;2023-04-01T16:41:52;99804.25;;;11.25;100.00
60244;BME280;46106;51.468;5.814;2023-04-01T16:44:26;99800.78;;;11.23;100.00
60244;BME280;46106;51.468;5.814;2023-04-01T16:46:54;99802.44;;;11.16;100.00
60244;BME280;46106;51.468;5.814;2023-04-01T16:49:33;99809.06;;;11.13;100.00
60244;BME280;46106;51.468;5.814;2023-04-01T16:54:31;99816.41;;;11.13;100.00
60244;BME280;46106;51.468;5.814;2023-04-01T16:59:36;99827.75;;;10.90;100.00
60244;BME280;46106;51.468;5.814;2023-04-01T17:04:47;99832.31;;;11.09;100.00
60244;BME280;46106;51.468;5.814;2023-04-01T17:15:36;99852.19;;;11.11;100.00
60244;BME280;46106;51.468;5.814;2023-04-01T17:18:18;99861.25;;;11.21;100.00
60244;BME280;46106;51.468;5.814;2023-04-01T17:21:07;99862.81;;;11.24;100.00
60244;BME280;46106;51.468;5.814;2023-04-01T17:32:54;99878.41;;;10.66;100.00
60244;BME280;46106;51.468;5.814;2023-04-01T17:35:33;99884.03;;;10.65;100.00
60244;BME280;46106;51.468;5.814;2023-04-01T17:44:21;99890.91;;;10.79;100.00
60244;BME280;46106;51.468;5.814;2023-04-01T17:47:22;99893.34;;;10.72;100.00
60244;BME280;46106;51.468;5.814;2023-04-01T17:50:13;99898.28;;;10.69;100.00
60244;BME280;46106;51.468;5.814;2023-04-01T17:52:48;99907.66;;;10.66;100.00
60244;BME280;46106;51.468;5.814;2023-04-01T17:55:42;99909.78;;;10.72;100.00
60244;BME280;46106;51.468;5.814;2023-04-01T17:58:21;99914.97;;;10.75;100.00
60244;BME280;46106;51.468;5.814;2023-04-01T18:04:05;99924.34;;;10.82;100.00
60244;BME280;46106;51.468;5.814;2023-04-01T18:11:48;99947.97;;;10.83;100.00
60244;BME280;46106;51.468;5.814;2023-04-01T18:14:47;99956.88;;;11.05;100.00
60244;BME280;46106;51.468;5.814;2023-04-01T18:20:28;99956.94;;;10.85;100.00
60244;BME280;46106;51.468;5.814;2023-04-01T18:23:26;99968.44;;;10.89;100.00
60244;BME280;46106;51.468;5.814;2023-04-01T18:26:08;99969.59;;;10.87;100.00
60244;BME280;46106;51.468;5.814;2023-04-01T18:28:49;99967.88;;;10.76;100.00
60244;BME280;46106;51.468;5.814;2023-04-01T18:31:20;99992.38;;;10.77;100.00
60244;BME280;46106;51.468;5.814;2023-04-01T18:34:07;99999.72;;;10.77;100.00
60244;BME280;46106;51.468;5.814;2023-04-01T18:36:44;100002.75;;;10.74;100.00
60244;BME280;46106;51.468;5.814;2023-04-01T18:39:22;100006.50;;;10.82;100.00
60244;BME280;46106;51.468;5.814;2023-04-01T18:42:03;100002.16;;;10.70;100.00
60244;BME280;46106;51.468;5.814;2023-04-01T18:44:50;100020.03;;;10.64;100.00
60244;BME280;46106;51.468;5.814;2023-04-01T18:50:36;100027.19;;;10.46;100.00
60244;BME280;46106;51.468;5.814;2023-04-01T18:56:05;100040.53;;;10.29;100.00
60244;BME280;46106;51.468;5.814;2023-04-01T19:06:51;100071.28;;;10.33;100.00
60244;BME280;46106;51.468;5.814;2023-04-01T19:09:46;100081.44;;;10.31;100.00
60244;BME280;46106;51.468;5.814;2023-04-01T19:12:21;100090.41;;;10.33;100.00
60244;BME280;46106;51.468;5.814;2023-04-01T19:31:38;100129.97;;;10.29;100.00
60244;BME280;46106;51.468;5.814;2023-04-01T19:46:07;100143.19;;;10.24;100.00
60244;BME280;46106;51.468;5.814;2023-04-01T19:51:27;100154.16;;;10.03;100.00
60244;BME280;46106;51.468;5.814;2023-04-01T19:59:50;100175.66;;;10.07;100.00
60244;BME280;46106;51.468;5.814;2023-04-01T20:05:34;100177.28;;;9.89;100.00
60244;BME280;46106;51.468;5.814;2023-04-01T20:08:19;100202.00;;;9.87;100.00
60244;BME280;46106;51.468;5.814;2023-04-01T20:11:04;100208.28;;;9.99;100.00
60244;BME280;46106;51.468;5.814;2023-04-01T20:13:41;100213.81;;;9.88;100.00
60244;BME280;46106;51.468;5.814;2023-04-01T20:16:15;100220.69;;;9.82;100.00
60244;BME280;46106;51.468;5.814;2023-04-01T20:18:59;100231.25;;;9.75;100.00
60244;BME280;46106;51.468;5.814;2023-04-01T20:21:42;100231.00;;;9.79;100.00
60244;BME280;46106;51.468;5.814;2023-04-01T20:26:43;100238.22;;;9.80;100.00
60244;BME280;46106;51.468;5.814;2023-04-01T20:40:37;100266.75;;;9.66;100.00
60244;BME280;46106;51.468;5.814;2023-04-01T20:43:23;100280.19;;;9.79;100.00
60244;BME280;46106;51.468;5.814;2023-04-01T20:46:01;100282.69;;;9.82;100.00
60244;BME280;46106;51.468;5.814;2023-04-01T20:49:01;100292.59;;;9.62;100.00
60244;BME280;46106;51.468;5.814;2023-04-01T20:51:39;100294.59;;;9.60;100.00
60244;BME280;46106;51.468;5.814;2023-04-01T20:59:59;100315.53;;;9.70;100.00
60244;BME280;46106;51.468;5.814;2023-04-01T21:13:53;100333.97;;;9.57;100.00
60244;BME280;46106;51.468;5.814;2023-04-01T21:16:47;100340.00;;;9.17;100.00
60244;BME280;46106;51.468;5.814;2023-04-01T21:19:36;100343.34;;;9.32;100.00
60244;BME280;46106;51.468;5.814;2023-04-01T21:22:23;100342.25;;;9.12;100.00
60244;BME280;46106;51.468;5.814;2023-04-01T21:25:38;100348.81;;;9.20;100.00
60244;BME280;46106;51.468;5.814;2023-04-01T21:42:32;100392.13;;;9.25;100.00
60244;BME280;46106;51.468;5.814;2023-04-01T21:50:45;100409.47;;;8.90;100.00
60244;BME280;46106;51.468;5.814;2023-04-01T22:12:48;100460.84;;;8.85;100.00
60244;BME280;46106;51.468;5.814;2023-04-01T22:18:21;100464.94;;;8.79;100.00
60244;BME280;46106;51.468;5.814;2023-04-01T22:29:21;100480.25;;;8.58;100.00
60244;BME280;46106;51.468;5.814;2023-04-01T22:34:42;100494.25;;;8.53;100.00
60244;BME280;46106;51.468;5.814;2023-04-01T22:40:00;100506.78;;;8.56;100.00
60244;BME280;46106;51.468;5.814;2023-04-01T22:43:20;100519.81;;;8.39;100.00